KMPZ

Mount Pleasant Municipal Airport

Mount Pleasant, Iowa, USA
METAR KMPZ 201915Z AUTO 31016G25KT 10SM SCT060 10/M02 A3018 RMK AO2
Observed Flight Rules
Oct-20 @ 19:15 UTC (15 minutes ago) Visual Flight Rules
Wind Visibility Clouds
310° at 16 knots
 Gusting to 25 knots
10 miles
  • Scattered at 6,000' AGL
Temperatures Readings
Current 10°C / 50°F
Dewpoint -2°C / 28°F
Humidity 43%
Altimeter 30.18" Hg
Pressure 1022 hPa
Elevation 224
METAR KMPZ 201915Z AUTO 31016G25KT 10SM SCT060 10/M02 A3018 RMK AO2
Observed Flight Rules
Oct-20 @ 19:15 UTC
(15 minutes ago)
VFR
Wind Visibility
310° at 16 knots
 Gusting to 25 knots
10 miles
Clouds
  • Scattered at 6,000' AGL
Temperature Dewpoint
10°C / 50°F -2°C / 28°F
Humidity Altimeter Pressure
43% 30.18" Hg 1022 hPa